OOCL California — VRWC8 — position and weather

sailwx.info

Track history (hours):
 
Tides and Currents Weather Stations Pressure Air Temp Water Temp Dewpoint Dewpoint Depression Visibility Wind Speed Wind Dir Waves Ship Positions

OOCL California

Last reported at 2015-Apr-16 07:33 UTC. Time now 2015-May-03 13:51 UTC.
Position N 01°55' E 102°21'.
Warning: this ship's position is 17 days out of date.

Length 276 m; beam 40 m; draft 14 m.

Type: Cargo ship. MMSI: 477704000.

Date/timePositionNaut miles runAvg speedWind from/ knotsBaromVisibWave heightAir tempDewpointWater temp
2015-Apr-16 07:33N 01°55' E 102°21'1919.0
2015-Apr-16 06:34N 01°46' E 102°38'1918.5
2015-Apr-16 05:31N 01°37' E 102°55'5116.0
2015-Apr-16 02:18N 01°13' E 103°40'7 9.8
2015-Apr-16 01:33N 01°17' E 103°45'0 0.2
2015-Apr-16 00:27N 01°17' E 103°46'0 0.0
2015-Apr-15 23:34N 01°17' E 103°46'0 0.0
2015-Apr-15 22:33N 01°17' E 103°46'0 0.0
2015-Apr-15 21:30N 01°17' E 103°46'0 0.0
2015-Apr-15 20:24N 01°17' E 103°46'0 0.0
2015-Apr-15 19:33N 01°17' E 103°46'0 0.0
2015-Apr-15 18:24N 01°17' E 103°46'0 0.0
2015-Apr-15 17:33N 01°17' E 103°46'0 0.0
2015-Apr-15 16:30N 01°17' E 103°46'0 0.0
2015-Apr-15 15:30N 01°17' E 103°46'0 0.0
2015-Apr-15 14:33N 01°17' E 103°46'0 0.0
2015-Apr-15 13:27N 01°17' E 103°46'0 0.0
2015-Apr-15 12:33N 01°17' E 103°46'0 0.0
2015-Apr-15 11:09N 01°17' E 103°46'0 0.0
2015-Apr-15 10:27N 01°17' E 103°46'0 0.0
2015-Apr-15 09:33N 01°17' E 103°46'1 0.9
2015-Apr-15 08:33N 01°16' E 103°45'3 3.4
2015-Apr-15 07:33N 01°14' E 103°48'1 0.9
2015-Apr-15 06:33N 01°14' E 103°47'2 1.7
2015-Apr-15 05:31N 01°16' E 103°47'0 0.0
2015-Apr-15 04:31N 01°16' E 103°47'0 0.0
2015-Apr-15 03:22N 01°16' E 103°47'0 0.0
2015-Apr-15 02:31N 01°16' E 103°47'0 0.0
2015-Apr-15 01:22N 01°16' E 103°47'0 0.0
2015-Apr-15 00:31N 01°16' E 103°47'0 0.0
2015-Apr-14 23:31N 01°16' E 103°47'0 0.0
2015-Apr-14 22:31N 01°16' E 103°47'0 0.0
2015-Apr-14 21:31N 01°16' E 103°47'0 0.0
2015-Apr-14 20:31N 01°16' E 103°47'0 0.0
2015-Apr-14 19:31N 01°16' E 103°47'0 0.0
2015-Apr-14 18:31N 01°16' E 103°47'0 0.0
2015-Apr-14 17:31N 01°16' E 103°47'0 0.0
2015-Apr-14 16:28N 01°16' E 103°47'0 0.0
2015-Apr-14 15:31N 01°16' E 103°47'1 1.0
2015-Apr-14 14:33N 01°15' E 103°47'8 7.8
2015-Apr-14 13:33N 01°14' E 103°54'2 1.9
2015-Apr-14 12:33N 01°14' E 103°56'7 6.9
2015-Apr-14 11:33N 01°16' E 104°03'1110.8
2015-Apr-14 10:33N 01°17' E 104°13'  
2015-Apr-10 17:34N 22°12' E 114°10'1110.6
2015-Apr-10 16:34N 22°21' E 114°04'1010.5
2015-Apr-10 15:33N 22°24' E 113°53'3 2.5
2015-Apr-10 14:30N 22°27' E 113°53'0 0.0
2015-Apr-10 13:33N 22°27' E 113°53'0 0.0
2015-Apr-10 12:33N 22°27' E 113°53'0 0.0
2015-Apr-10 11:33N 22°27' E 113°53'0 0.0
2015-Apr-10 10:33N 22°27' E 113°53'0 0.0
2015-Apr-10 09:33N 22°27' E 113°53'0 0.0
2015-Apr-10 08:33N 22°27' E 113°53'0 0.0
2015-Apr-10 07:33N 22°27' E 113°53'0 0.0
2015-Apr-10 06:33N 22°27' E 113°53'0 0.0
2015-Apr-10 05:33N 22°27' E 113°53'0 0.0
2015-Apr-10 04:33N 22°27' E 113°53'0 0.1
2015-Apr-10 03:33N 22°27' E 113°53'5 4.7
2015-Apr-10 02:33N 22°22' E 113°54'1010.3
2015-Apr-10 01:33N 22°19' E 114°05'10 9.7
2015-Apr-10 00:33N 22°12' E 114°11'1110.9
2015-Apr-09 23:33N 22°09' E 114°23'1212.1
2015-Apr-09 22:33N 22°08' E 114°36'12412.4
2015-Apr-09 12:33N 22°46' E 116°43'1613.3
2015-Apr-09 11:21N 22°55' E 116°58'1414.7
2015-Apr-09 10:25N 23°02' E 117°11'6014.7
2015-Apr-09 06:20N 23°37' E 118°03'1414.8
2015-Apr-09 05:24N 23°46' E 118°15'1214.5
2015-Apr-09 04:33N 23°54' E 118°25'3414.2
2015-Apr-09 02:08N 24°17' E 118°53'1314.2
2015-Apr-09 01:13N 24°27' E 119°02'914.3
2015-Apr-09 00:33N 24°33' E 119°10'1414.4
2015-Apr-08 23:33N 24°41' E 119°23'5214.9
2015-Apr-08 20:05N 25°17' E 120°04'25315.3
2015-Apr-08 03:33N 28°53' E 122°31'1514.7
2015-Apr-08 02:30N 29°08' E 122°28'1516.3
2015-Apr-08 01:33N 29°23' E 122°30'1615.6
2015-Apr-08 00:33N 29°39' E 122°30'1514.8
2015-Apr-07 23:33N 29°47' E 122°16'1010.2
2015-Apr-07 22:33N 29°47' E 122°04'4 2.6
2015-Apr-07 21:08N 29°46' E 122°00'0 0.0
2015-Apr-07 20:33N 29°46' E 122°00'0 0.0
2015-Apr-07 19:33N 29°46' E 122°00'0 0.0
2015-Apr-07 18:33N 29°46' E 122°00'0 0.0
2015-Apr-07 17:34N 29°46' E 122°00'0 0.0
2015-Apr-07 16:33N 29°46' E 122°00'0 0.0
2015-Apr-07 15:34N 29°46' E 122°00'0 0.0
2015-Apr-07 14:33N 29°46' E 122°00'0 0.0
2015-Apr-07 13:32N 29°46' E 122°00'0 0.0
2015-Apr-07 12:33N 29°46' E 122°00'0 0.0
2015-Apr-07 11:33N 29°46' E 122°00'0 0.0
2015-Apr-07 10:33N 29°46' E 122°00'3 2.8
2015-Apr-07 09:32N 29°47' E 122°03'10 9.8
2015-Apr-07 08:33N 29°48' E 122°14'7 7.0
2015-Apr-07 07:32N 29°44' E 122°21'3 0.8
2015-Apr-07 03:31N 29°42' E 122°23'0 0.0
2015-Apr-07 02:33N 29°42' E 122°23'0 0.0
2015-Apr-07 01:33N 29°42' E 122°23'0 0.2
2015-Apr-07 00:33N 29°41' E 122°23'0 0.1
2015-Apr-06 23:33N 29°41' E 122°23'5 5.3
2015-Apr-06 22:33N 29°43' E 122°29'1111.3
2015-Apr-06 21:33N 29°50' E 122°39'76 6.8
2015-Apr-06 10:28N 31°06' E 122°32'1011.2
2015-Apr-06 09:33N 31°06' E 122°20'1211.6
2015-Apr-06 08:33N 31°12' E 122°08'1413.6
2015-Apr-06 07:33N 31°16' E 121°53'  
Track history (hours):
 
Tides and Currents Weather Stations Pressure Air Temp Water Temp Dewpoint Dewpoint Depression Visibility Wind Speed Wind Dir Waves Ship Positions

OOCL California

Last reported at 2015-Apr-16 07:33 UTC. Time now 2015-May-03 13:51 UTC.
Position N 01°55' E 102°21'.
Warning: this ship's position is 17 days out of date.

Length 276 m; beam 40 m; draft 14 m.

Type: Cargo ship. MMSI: 477704000.

Date/timePositionNaut miles runAvg speedWind from/ knotsBaromVisibWave heightAir tempDewpointWater temp
2015-Apr-16 07:33N 01°55' E 102°21'1919.0
2015-Apr-16 06:34N 01°46' E 102°38'1918.5
2015-Apr-16 05:31N 01°37' E 102°55'5116.0
2015-Apr-16 02:18N 01°13' E 103°40'7 9.8
2015-Apr-16 01:33N 01°17' E 103°45'0 0.2
2015-Apr-16 00:27N 01°17' E 103°46'0 0.0
2015-Apr-15 23:34N 01°17' E 103°46'0 0.0
2015-Apr-15 22:33N 01°17' E 103°46'0 0.0
2015-Apr-15 21:30N 01°17' E 103°46'0 0.0
2015-Apr-15 20:24N 01°17' E 103°46'0 0.0
2015-Apr-15 19:33N 01°17' E 103°46'0 0.0
2015-Apr-15 18:24N 01°17' E 103°46'0 0.0
2015-Apr-15 17:33N 01°17' E 103°46'0 0.0
2015-Apr-15 16:30N 01°17' E 103°46'0 0.0
2015-Apr-15 15:30N 01°17' E 103°46'0 0.0
2015-Apr-15 14:33N 01°17' E 103°46'0 0.0
2015-Apr-15 13:27N 01°17' E 103°46'0 0.0
2015-Apr-15 12:33N 01°17' E 103°46'0 0.0
2015-Apr-15 11:09N 01°17' E 103°46'0 0.0
2015-Apr-15 10:27N 01°17' E 103°46'0 0.0
2015-Apr-15 09:33N 01°17' E 103°46'1 0.9
2015-Apr-15 08:33N 01°16' E 103°45'3 3.4
2015-Apr-15 07:33N 01°14' E 103°48'1 0.9
2015-Apr-15 06:33N 01°14' E 103°47'2 1.7
2015-Apr-15 05:31N 01°16' E 103°47'0 0.0
2015-Apr-15 04:31N 01°16' E 103°47'0 0.0
2015-Apr-15 03:22N 01°16' E 103°47'0 0.0
2015-Apr-15 02:31N 01°16' E 103°47'0 0.0
2015-Apr-15 01:22N 01°16' E 103°47'0 0.0
2015-Apr-15 00:31N 01°16' E 103°47'0 0.0
2015-Apr-14 23:31N 01°16' E 103°47'0 0.0
2015-Apr-14 22:31N 01°16' E 103°47'0 0.0
2015-Apr-14 21:31N 01°16' E 103°47'0 0.0
2015-Apr-14 20:31N 01°16' E 103°47'0 0.0
2015-Apr-14 19:31N 01°16' E 103°47'0 0.0
2015-Apr-14 18:31N 01°16' E 103°47'0 0.0
2015-Apr-14 17:31N 01°16' E 103°47'0 0.0
2015-Apr-14 16:28N 01°16' E 103°47'0 0.0
2015-Apr-14 15:31N 01°16' E 103°47'1 1.0
2015-Apr-14 14:33N 01°15' E 103°47'8 7.8
2015-Apr-14 13:33N 01°14' E 103°54'2 1.9
2015-Apr-14 12:33N 01°14' E 103°56'7 6.9
2015-Apr-14 11:33N 01°16' E 104°03'1110.8
2015-Apr-14 10:33N 01°17' E 104°13'  
2015-Apr-10 17:34N 22°12' E 114°10'1110.6
2015-Apr-10 16:34N 22°21' E 114°04'1010.5
2015-Apr-10 15:33N 22°24' E 113°53'3 2.5
2015-Apr-10 14:30N 22°27' E 113°53'0 0.0
2015-Apr-10 13:33N 22°27' E 113°53'0 0.0
2015-Apr-10 12:33N 22°27' E 113°53'0 0.0
2015-Apr-10 11:33N 22°27' E 113°53'0 0.0
2015-Apr-10 10:33N 22°27' E 113°53'0 0.0
2015-Apr-10 09:33N 22°27' E 113°53'0 0.0
2015-Apr-10 08:33N 22°27' E 113°53'0 0.0
2015-Apr-10 07:33N 22°27' E 113°53'0 0.0
2015-Apr-10 06:33N 22°27' E 113°53'0 0.0
2015-Apr-10 05:33N 22°27' E 113°53'0 0.0
2015-Apr-10 04:33N 22°27' E 113°53'0 0.1
2015-Apr-10 03:33N 22°27' E 113°53'5 4.7
2015-Apr-10 02:33N 22°22' E 113°54'1010.3
2015-Apr-10 01:33N 22°19' E 114°05'10 9.7
2015-Apr-10 00:33N 22°12' E 114°11'1110.9
2015-Apr-09 23:33N 22°09' E 114°23'1212.1
2015-Apr-09 22:33N 22°08' E 114°36'12412.4
2015-Apr-09 12:33N 22°46' E 116°43'1613.3
2015-Apr-09 11:21N 22°55' E 116°58'1414.7
2015-Apr-09 10:25N 23°02' E 117°11'6014.7
2015-Apr-09 06:20N 23°37' E 118°03'1414.8
2015-Apr-09 05:24N 23°46' E 118°15'1214.5
2015-Apr-09 04:33N 23°54' E 118°25'3414.2
2015-Apr-09 02:08N 24°17' E 118°53'1314.2
2015-Apr-09 01:13N 24°27' E 119°02'914.3
2015-Apr-09 00:33N 24°33' E 119°10'1414.4
2015-Apr-08 23:33N 24°41' E 119°23'5214.9
2015-Apr-08 20:05N 25°17' E 120°04'25315.3
2015-Apr-08 03:33N 28°53' E 122°31'1514.7
2015-Apr-08 02:30N 29°08' E 122°28'1516.3
2015-Apr-08 01:33N 29°23' E 122°30'1615.6
2015-Apr-08 00:33N 29°39' E 122°30'1514.8
2015-Apr-07 23:33N 29°47' E 122°16'1010.2
2015-Apr-07 22:33N 29°47' E 122°04'4 2.6
2015-Apr-07 21:08N 29°46' E 122°00'0 0.0
2015-Apr-07 20:33N 29°46' E 122°00'0 0.0
2015-Apr-07 19:33N 29°46' E 122°00'0 0.0
2015-Apr-07 18:33N 29°46' E 122°00'0 0.0
2015-Apr-07 17:34N 29°46' E 122°00'0 0.0
2015-Apr-07 16:33N 29°46' E 122°00'0 0.0
2015-Apr-07 15:34N 29°46' E 122°00'0 0.0
2015-Apr-07 14:33N 29°46' E 122°00'0 0.0
2015-Apr-07 13:32N 29°46' E 122°00'0 0.0
2015-Apr-07 12:33N 29°46' E 122°00'0 0.0
2015-Apr-07 11:33N 29°46' E 122°00'0 0.0
2015-Apr-07 10:33N 29°46' E 122°00'3 2.8
2015-Apr-07 09:32N 29°47' E 122°03'10 9.8
2015-Apr-07 08:33N 29°48' E 122°14'7 7.0
2015-Apr-07 07:32N 29°44' E 122°21'3 0.8
2015-Apr-07 03:31N 29°42' E 122°23'0 0.0
2015-Apr-07 02:33N 29°42' E 122°23'0 0.0
2015-Apr-07 01:33N 29°42' E 122°23'0 0.2
2015-Apr-07 00:33N 29°41' E 122°23'0 0.1
2015-Apr-06 23:33N 29°41' E 122°23'5 5.3
2015-Apr-06 22:33N 29°43' E 122°29'1111.3
2015-Apr-06 21:33N 29°50' E 122°39'76 6.8
2015-Apr-06 10:28N 31°06' E 122°32'1011.2
2015-Apr-06 09:33N 31°06' E 122°20'1211.6
2015-Apr-06 08:33N 31°12' E 122°08'1413.6
2015-Apr-06 07:33N 31°16' E 121°53'  

Dump ship's entire track history